Time;durP1;ratioP1;P1;durP2;ratioP2;P2;SDS_P1;SDS_P2;PMS_P1;PMS_P2;Temp;Humidity;BMP_temperature;BMP_pressure;BME280_temperature;BME280_humidity;BME280_pressure;Samples;Min_cycle;Max_cycle;Signal;HPM_P1;HPM_P2
2021/03/21 00:02:04;;;;;;;14.10;7.95;;;;;;;6.86;33.72;100227.53;2487952;78;25534;-78
2021/03/21 00:05:27;;;;;;;14.60;8.70;;;;;;;6.84;33.73;100218.81;2490162;79;25506;-77
2021/03/21 00:08:49;;;;;;;11.15;7.03;;;;;;;6.83;33.77;100215.34;2488331;78;25300;-78
2021/03/21 00:12:11;;;;;;;15.48;8.45;;;;;;;6.85;33.81;100220.57;2470270;77;26005;-76
2021/03/21 00:15:33;;;;;;;24.20;8.23;;;;;;;6.82;33.82;100216.19;2487834;78;25620;-77
2021/03/21 00:18:55;;;;;;;14.58;7.92;;;;;;;6.84;33.85;100204.56;2458214;78;25644;-80
2021/03/21 00:22:17;;;;;;;15.35;7.12;;;;;;;6.82;33.92;100191.56;2488910;78;25341;-78
2021/03/21 00:25:39;;;;;;;13.58;7.90;;;;;;;6.80;33.95;100187.15;2487462;78;25699;-77
2021/03/21 00:29:03;;;;;;;13.13;8.15;;;;;;;6.82;33.98;100186.39;2489615;78;25873;-79
2021/03/21 00:32:25;;;;;;;10.10;7.50;;;;;;;6.83;34.02;100179.07;2487666;78;25475;-80
2021/03/21 00:35:47;;;;;;;12.78;6.53;;;;;;;6.83;34.01;100175.60;2487699;78;25698;-79
2021/03/21 00:39:11;;;;;;;9.93;6.65;;;;;;;6.82;34.08;100180.33;2459131;79;25592;-76
2021/03/21 00:42:32;;;;;;;13.28;7.22;;;;;;;6.82;34.06;100160.47;2477713;79;25634;-77
2021/03/21 00:45:57;;;;;;;11.22;7.60;;;;;;;6.77;34.11;100149.47;2477751;79;25215;-78
2021/03/21 00:49:20;;;;;;;12.03;7.87;;;;;;;6.75;34.09;100147.23;2477615;79;26269;-77
2021/03/21 00:52:41;;;;;;;15.53;7.47;;;;;;;6.70;34.16;100127.65;2477822;78;25644;-78
2021/03/21 00:56:06;;;;;;;11.68;7.15;;;;;;;6.68;34.26;100125.41;2477486;79;25659;-77
2021/03/21 00:59:27;;;;;;;10.63;7.00;;;;;;;6.70;34.25;100125.48;2477719;78;25656;-78
2021/03/21 01:02:52;;;;;;;9.83;6.55;;;;;;;6.69;34.29;100117.25;2477492;79;25612;-78
2021/03/21 01:06:16;;;;;;;10.58;6.67;;;;;;;6.68;34.33;100112.45;2477515;79;25809;-76
2021/03/21 01:09:39;;;;;;;9.50;6.15;;;;;;;6.69;34.37;100100.41;2477789;79;25669;-76
2021/03/21 01:13:03;;;;;;;10.08;6.50;;;;;;;6.68;34.40;100089.56;2477753;79;25472;-76
2021/03/21 01:16:35;;;;;;;10.93;7.03;;;;;;;6.68;34.46;100088.27;2477545;79;25209;-77
2021/03/21 01:19:56;;;;;;;11.50;6.95;;;;;;;6.66;34.46;100076.57;2477157;79;25655;-77
2021/03/21 01:23:18;;;;;;;13.10;7.83;;;;;;;6.66;34.47;100065.33;2477618;79;25571;-77
2021/03/21 01:26:39;;;;;;;16.02;6.55;;;;;;;6.63;34.52;100054.03;2477403;78;26282;-78
2021/03/21 01:30:01;;;;;;;13.50;7.12;;;;;;;6.64;34.58;100049.72;2477754;79;25567;-77
2021/03/21 01:33:23;;;;;;;11.38;6.92;;;;;;;6.60;34.60;100033.20;2477713;79;25870;-78
2021/03/21 01:36:45;;;;;;;12.05;6.50;;;;;;;6.63;34.64;100030.72;2478025;79;25718;-78
2021/03/21 01:40:10;;;;;;;12.33;7.08;;;;;;;6.63;34.66;100027.25;2488283;78;25623;-77
2021/03/21 01:43:36;;;;;;;12.65;6.15;;;;;;;6.59;34.66;100014.61;2488394;79;25480;-76
2021/03/21 01:47:06;;;;;;;12.60;7.60;;;;;;;6.59;34.75;100007.27;2488395;79;25557;-79
2021/03/21 01:50:49;;;;;;;12.93;6.50;;;;;;;6.60;34.76;99998.66;2488348;78;25664;-78
2021/03/21 01:54:17;;;;;;;11.45;5.90;;;;;;;6.59;34.77;99987.84;2487703;78;25655;-79
2021/03/21 01:57:38;;;;;;;12.55;5.75;;;;;;;6.59;34.81;99980.06;2488672;79;25641;-77
2021/03/21 02:01:05;;;;;;;8.83;5.80;;;;;;;6.57;34.83;99970.93;2435713;80;25649;-77
2021/03/21 02:04:29;;;;;;;8.48;5.70;;;;;;;6.56;34.86;99971.77;2247970;86;25763;-77
2021/03/21 02:08:24;;;;;;;6.27;5.23;;;;;;;6.58;34.85;99955.88;2592198;76;25127;-77
2021/03/21 02:12:00;;;;;;;13.30;6.53;;;;;;;6.52;34.83;99961.27;2561696;77;25665;-77
2021/03/21 02:15:43;;;;;;;6.47;4.83;;;;;;;6.50;34.92;99962.92;2461714;80;25539;-77
2021/03/21 02:19:39;;;;;;;7.37;5.17;;;;;;;6.50;34.99;99947.38;2462339;80;25471;-78
2021/03/21 02:23:29;;;;;;;10.00;6.03;;;;;;;6.51;35.01;99938.77;2462309;80;25810;-78
2021/03/21 02:27:05;;;;;;;7.78;5.37;;;;;;;6.49;35.02;99919.73;2439312;80;26267;-80
2021/03/21 02:30:32;;;;;;;12.18;5.08;;;;;;;6.50;35.06;99916.31;2462329;80;25404;-79
2021/03/21 02:34:09;;;;;;;8.43;4.93;;;;;;;6.52;35.06;99902.59;2545451;76;25467;-80
2021/03/21 02:37:53;;;;;;;12.23;5.28;;;;;;;6.41;35.07;99887.52;2474440;79;25653;-79
2021/03/21 02:41:23;;;;;;;11.12;5.47;;;;;;;6.37;35.18;99887.41;2505759;78;25655;-79
2021/03/21 02:45:00;;;;;;;7.17;4.65;;;;;;;6.38;35.20;99887.03;2465049;79;25729;-77
2021/03/21 02:48:33;;;;;;;7.53;4.40;;;;;;;6.34;35.23;99877.38;2461334;79;25535;-77
2021/03/21 02:52:00;;;;;;;7.53;5.10;;;;;;;6.31;35.29;99857.86;2461100;79;25520;-79
2021/03/21 02:55:41;;;;;;;9.53;6.85;;;;;;;6.28;35.37;99859.09;2461333;80;25738;-78
2021/03/21 02:59:13;;;;;;;7.03;3.87;;;;;;;6.28;35.44;99847.44;2461233;80;25603;-76
2021/03/21 03:02:43;;;;;;;8.15;4.50;;;;;;;6.30;35.48;99840.16;2461072;80;25663;-78
2021/03/21 03:06:10;;;;;;;9.53;4.65;;;;;;;6.33;35.48;99840.69;2461019;80;25662;-79
2021/03/21 03:09:43;;;;;;;7.08;4.53;;;;;;;6.32;35.47;99821.69;2461317;80;25407;-79
2021/03/21 03:13:16;;;;;;;6.37;4.72;;;;;;;6.33;35.55;99820.84;2461118;79;25651;-78
2021/03/21 03:17:27;;;;;;;7.03;4.70;;;;;;;6.37;35.57;99804.57;2605159;76;25436;-77
2021/03/21 03:20:59;;;;;;;7.33;4.05;;;;;;;6.31;35.64;99815.15;2565119;77;25676;-77
2021/03/21 03:24:34;;;;;;;10.35;4.55;;;;;;;6.33;35.67;99804.44;2564324;77;25137;-77
2021/03/21 03:28:36;;;;;;;7.97;4.22;;;;;;;6.35;35.73;99780.36;2564808;77;25313;-77
2021/03/21 03:32:02;;;;;;;5.67;3.95;;;;;;;6.34;35.68;99793.24;2565110;76;25582;-77
2021/03/21 03:35:26;;;;;;;9.48;4.08;;;;;;;6.32;35.79;99780.27;2565051;77;25590;-79
2021/03/21 03:38:51;;;;;;;8.13;3.87;;;;;;;6.32;35.78;99769.91;2564986;77;25568;-78
2021/03/21 03:42:23;;;;;;;8.20;4.47;;;;;;;6.35;35.80;99769.14;2565216;77;25640;-78
2021/03/21 03:46:11;;;;;;;9.28;4.75;;;;;;;6.35;35.81;99758.36;2520368;77;25374;-77
2021/03/21 03:50:04;;;;;;;5.40;4.00;;;;;;;6.38;35.89;99760.17;2509893;78;25705;-78
2021/03/21 03:54:13;;;;;;;5.20;3.47;;;;;;;6.40;35.86;99754.60;2509752;78;25619;-79
2021/03/21 03:58:02;;;;;;;5.33;3.75;;;;;;;6.38;35.82;99738.17;2509238;78;25701;-79
2021/03/21 04:01:37;;;;;;;5.00;3.33;;;;;;;6.34;35.93;99738.88;2509743;78;25731;-80
2021/03/21 04:05:19;;;;;;;6.78;3.50;;;;;;;6.34;36.03;99726.81;2509766;78;25784;-78
2021/03/21 04:09:07;;;;;;;8.50;4.33;;;;;;;6.38;36.04;99719.63;2509255;78;25405;-79
2021/03/21 04:12:46;;;;;;;8.58;4.12;;;;;;;6.37;36.04;99716.55;2509928;78;25619;-78
2021/03/21 04:16:12;;;;;;;9.20;4.43;;;;;;;6.32;36.11;99719.86;2509187;78;25876;-78
2021/03/21 04:19:40;;;;;;;5.00;3.35;;;;;;;6.31;36.16;99709.92;2509586;78;25405;-77
2021/03/21 04:23:22;;;;;;;6.15;3.50;;;;;;;6.28;36.18;99702.06;2509772;78;25667;-77
2021/03/21 04:26:48;;;;;;;6.12;3.77;;;;;;;6.27;36.26;99692.94;2514970;78;25508;-77
2021/03/21 04:30:18;;;;;;;5.17;3.67;;;;;;;6.26;36.29;99695.08;2517386;77;25632;-77
2021/03/21 04:33:51;;;;;;;5.45;4.42;;;;;;;6.28;36.42;99694.72;2517767;78;25589;-76
2021/03/21 04:37:16;;;;;;;9.05;3.75;;;;;;;6.31;36.39;99690.51;2517503;78;25646;-77
2021/03/21 04:40:39;;;;;;;7.22;4.55;;;;;;;6.33;36.42;99684.06;2517511;78;25468;-76
2021/03/21 04:44:24;;;;;;;6.55;4.12;;;;;;;6.34;36.48;99679.34;2517545;77;25216;-76
2021/03/21 04:48:05;;;;;;;6.10;3.35;;;;;;;6.31;36.46;99689.59;2516981;78;25648;-78
2021/03/21 04:51:39;;;;;;;8.25;3.72;;;;;;;6.31;36.57;99668.50;2517600;78;25629;-77
2021/03/21 04:55:03;;;;;;;7.28;3.47;;;;;;;6.35;36.51;99666.88;2485455;78;25590;-80
2021/03/21 04:58:39;;;;;;;6.67;3.70;;;;;;;6.32;36.58;99651.26;2517689;78;25607;-80
2021/03/21 05:02:17;;;;;;;5.10;3.12;;;;;;;6.37;36.59;99655.71;2487296;78;25561;-77
2021/03/21 05:05:45;;;;;;;6.65;3.58;;;;;;;6.42;36.62;99641.63;2517071;78;25245;-78
2021/03/21 05:09:19;;;;;;;9.15;3.65;;;;;;;6.45;36.61;99643.43;2517780;78;25547;-78
2021/03/21 05:12:53;;;;;;;4.15;3.35;;;;;;;6.46;36.56;99631.80;2517768;78;25258;-78
2021/03/21 05:16:26;;;;;;;5.50;3.72;;;;;;;6.47;36.60;99628.37;2494414;78;25628;-80
2021/03/21 05:20:17;;;;;;;5.30;3.27;;;;;;;6.52;36.57;99624.64;2483119;79;25741;-78
2021/03/21 05:23:56;;;;;;;6.47;4.10;;;;;;;6.51;36.58;99628.91;2483820;79;25689;-78
2021/03/21 05:27:29;;;;;;;6.10;3.30;;;;;;;6.53;36.61;99621.20;2484213;79;25539;-79
2021/03/21 05:31:30;;;;;;;6.97;4.23;;;;;;;6.59;36.60;99617.49;2554601;77;26403;-79
2021/03/21 05:34:56;;;;;;;4.05;2.85;;;;;;;6.56;36.65;99618.28;2485072;78;25654;-79
2021/03/21 05:38:35;;;;;;;6.25;3.77;;;;;;;6.60;36.58;99618.81;2516016;78;25627;-78
2021/03/21 05:42:47;;;;;;;7.60;4.12;;;;;;;6.61;36.58;99608.03;2422810;81;31169;-79
2021/03/21 05:46:34;;;;;;;4.62;3.37;;;;;;;6.63;36.56;99601.19;2434984;80;25828;-79
2021/03/21 05:50:29;;;;;;;7.37;3.80;;;;;;;6.69;36.54;99600.07;2411491;81;25578;-78
2021/03/21 05:54:30;;;;;;;5.97;3.47;;;;;;;6.69;36.52;99596.19;2411767;81;25186;-78
2021/03/21 05:58:15;;;;;;;5.67;3.42;;;;;;;6.72;36.47;99594.09;2411563;81;25688;-77
2021/03/21 06:02:08;;;;;;;8.53;3.83;;;;;;;6.73;36.46;99601.89;2410549;82;25574;-77
2021/03/21 06:06:17;;;;;;;4.83;3.42;;;;;;;6.74;36.39;99592.41;2411805;82;25354;-78
2021/03/21 06:10:03;;;;;;;4.13;3.27;;;;;;;6.69;36.45;99583.66;2411947;82;25659;-77
2021/03/21 06:13:45;;;;;;;11.03;3.42;;;;;;;6.73;36.47;99574.70;2307912;82;25478;-77
2021/03/21 06:17:27;;;;;;;5.17;3.42;;;;;;;6.78;36.47;99569.63;2333920;84;25667;-77
2021/03/21 06:21:34;;;;;;;6.67;3.87;;;;;;;6.83;36.42;99572.80;2268175;86;25723;-78
2021/03/21 06:25:43;;;;;;;6.03;3.42;;;;;;;6.88;36.42;99566.42;2333752;84;25715;-78
2021/03/21 06:29:54;;;;;;;5.37;3.62;;;;;;;6.94;36.40;99561.83;2266499;86;26463;-79
2021/03/21 06:33:42;;;;;;;4.90;3.50;;;;;;;6.96;36.37;99557.58;2317015;85;25674;-78
2021/03/21 06:37:42;;;;;;;6.60;3.67;;;;;;;7.03;36.40;99543.92;2645233;74;25281;-78
2021/03/21 06:41:30;;;;;;;5.53;3.60;;;;;;;6.99;36.36;99539.09;2612298;75;25293;-78
2021/03/21 06:45:09;;;;;;;4.70;3.87;;;;;;;7.03;36.38;99538.32;2611439;75;25724;-78
2021/03/21 06:48:59;;;;;;;6.58;3.98;;;;;;;7.09;36.33;99531.99;2510218;78;25657;-80
2021/03/21 06:52:47;;;;;;;4.87;3.67;;;;;;;7.16;36.35;99521.78;2510376;78;25566;-78
2021/03/21 06:56:25;;;;;;;5.40;3.90;;;;;;;7.26;36.32;99521.15;2510264;78;25903;-78
2021/03/21 07:00:18;;;;;;;5.70;3.95;;;;;;;7.37;36.34;99527.44;2510240;78;25708;-78
2021/03/21 07:04:01;;;;;;;5.75;4.05;;;;;;;7.46;36.32;99522.47;2510350;78;25680;-80
2021/03/21 07:08:17;;;;;;;5.28;4.00;;;;;;;7.54;36.25;99511.83;2510137;78;25519;-80
2021/03/21 07:12:05;;;;;;;5.10;3.40;;;;;;;7.60;36.26;99511.52;2510121;78;26452;-77
2021/03/21 07:15:48;;;;;;;6.10;4.15;;;;;;;7.61;36.25;99507.66;2510316;78;25393;-77
2021/03/21 07:19:51;;;;;;;6.20;4.40;;;;;;;7.65;36.27;99506.87;2509353;78;25743;-79
2021/03/21 07:23:47;;;;;;;8.48;4.90;;;;;;;7.74;36.33;99510.09;2510506;76;26359;-79
2021/03/21 07:27:16;;;;;;;9.63;4.75;;;;;;;7.76;36.36;99496.31;2387273;82;25649;-79
2021/03/21 07:30:52;;;;;;;6.17;4.12;;;;;;;7.83;36.40;99489.92;2385835;82;25704;-80
2021/03/21 07:34:52;;;;;;;9.30;4.17;;;;;;;7.89;36.40;99488.33;2387148;82;25323;-79
2021/03/21 07:38:42;;;;;;;5.83;4.40;;;;;;;7.94;36.43;99480.23;2385975;82;25657;-76
2021/03/21 07:42:39;;;;;;;6.53;4.25;;;;;;;8.02;36.60;99472.59;2386684;82;25615;-77
2021/03/21 07:46:23;;;;;;;7.20;4.47;;;;;;;8.08;36.59;99466.22;2387106;82;25442;-78
2021/03/21 07:50:11;;;;;;;6.50;4.65;;;;;;;8.10;36.60;99463.64;2386641;81;25621;-79
2021/03/21 07:54:06;;;;;;;6.42;4.83;;;;;;;8.10;36.69;99459.74;2386492;82;25645;-80
2021/03/21 07:57:42;;;;;;;7.12;4.10;;;;;;;8.09;36.86;99448.48;2386490;82;25647;-79
2021/03/21 08:01:04;;;;;;;7.45;4.35;;;;;;;8.14;36.90;99451.19;2386391;81;25754;-79
2021/03/21 08:04:33;;;;;;;6.25;4.75;;;;;;;8.17;37.03;99448.22;2537164;76;25690;-79
2021/03/21 08:07:57;;;;;;;7.53;4.58;;;;;;;8.19;37.01;99436.13;2497950;79;34935;-81
2021/03/21 08:11:20;;;;;;;8.23;5.30;;;;;;;8.20;37.17;99442.19;2498282;79;25436;-82
2021/03/21 08:15:03;;;;;;;6.58;4.83;;;;;;;8.19;37.21;99437.86;2469707;79;25732;-79
2021/03/21 08:18:32;;;;;;;6.78;4.75;;;;;;;8.19;37.35;99438.72;2498137;78;25699;-80
2021/03/21 08:21:55;;;;;;;7.20;5.62;;;;;;;8.21;37.44;99429.25;2500892;79;25744;-79
2021/03/21 08:25:25;;;;;;;9.35;5.50;;;;;;;8.20;37.51;99433.10;2498095;79;25663;-79
2021/03/21 08:29:11;;;;;;;10.25;5.28;;;;;;;8.17;37.63;99429.19;2500537;79;25554;-80
2021/03/21 08:32:37;;;;;;;8.48;4.85;;;;;;;8.17;37.61;99426.59;2385025;82;25730;-81
2021/03/21 08:36:22;;;;;;;8.08;6.10;;;;;;;8.13;37.73;99433.84;2414142;81;25750;-79
2021/03/21 08:39:49;;;;;;;6.03;4.90;;;;;;;8.03;37.79;99427.20;2435887;81;25746;-79
2021/03/21 08:43:43;;;;;;;7.80;4.57;;;;;;;8.05;38.01;99411.22;2593741;76;25480;-80
2021/03/21 08:47:07;;;;;;;6.90;5.22;;;;;;;8.03;38.02;99418.52;2560709;77;25360;-80
2021/03/21 08:50:40;;;;;;;9.53;5.67;;;;;;;8.03;38.10;99416.83;2421059;81;25154;-80
2021/03/21 08:54:21;;;;;;;7.60;5.87;;;;;;;8.04;38.14;99420.30;2465332;79;25594;-79
2021/03/21 08:57:48;;;;;;;7.28;5.65;;;;;;;8.02;38.21;99415.05;2421044;81;25691;-79
2021/03/21 09:01:13;;;;;;;7.55;5.08;;;;;;;8.02;38.29;99420.67;2392411;81;25670;-78
2021/03/21 09:04:44;;;;;;;6.78;5.83;;;;;;;8.00;38.33;99414.60;2463100;80;25548;-78
2021/03/21 09:08:07;;;;;;;7.15;5.30;;;;;;;7.97;38.43;99398.97;2465454;80;25777;-79
2021/03/21 09:11:35;;;;;;;8.45;6.03;;;;;;;7.96;38.54;99400.66;2422518;81;25680;-80
2021/03/21 09:15:23;;;;;;;6.72;5.95;;;;;;;7.98;38.54;99407.20;2422701;81;25630;-81
2021/03/21 09:18:45;;;;;;;7.67;4.83;;;;;;;7.99;38.63;99406.34;2422460;81;25686;-79
2021/03/21 09:22:40;;;;;;;8.95;6.00;;;;;;;8.02;38.73;99402.08;2399843;81;25747;-78
2021/03/21 09:26:22;;;;;;;8.05;6.08;;;;;;;8.06;38.71;99396.52;2413468;82;25697;-79
2021/03/21 09:29:46;;;;;;;10.48;6.03;;;;;;;8.08;38.73;99395.27;2413121;82;25699;-79
2021/03/21 09:33:16;;;;;;;7.35;6.03;;;;;;;8.07;38.73;99397.42;2413655;81;25493;-79
2021/03/21 09:37:01;;;;;;;9.83;6.10;;;;;;;8.04;38.89;99393.91;2413065;82;25823;-80
2021/03/21 09:40:42;;;;;;;7.53;5.78;;;;;;;8.04;38.95;99394.34;2413214;82;25387;-80
2021/03/21 09:44:21;;;;;;;6.75;5.53;;;;;;;8.06;39.09;99395.22;2412996;81;25722;-82
2021/03/21 09:48:00;;;;;;;8.43;6.08;;;;;;;8.08;39.16;99392.66;2413834;82;25677;-79
2021/03/21 09:51:27;;;;;;;6.90;6.20;;;;;;;8.11;39.11;99397.48;2413629;82;25673;-78
2021/03/21 09:55:17;;;;;;;10.50;5.87;;;;;;;8.09;39.21;99393.98;2410295;82;25618;-81
2021/03/21 09:58:53;;;;;;;8.18;5.72;;;;;;;8.16;39.27;99384.58;2412724;81;25738;-76
2021/03/21 10:02:26;;;;;;;9.00;6.05;;;;;;;8.22;39.29;99386.85;2411961;82;26359;-80
2021/03/21 10:06:15;;;;;;;11.53;5.87;;;;;;;8.27;39.33;99377.87;2412812;82;25658;-84
2021/03/21 10:09:42;;;;;;;12.07;6.72;;;;;;;8.30;39.42;99373.99;2412730;81;25758;-79
2021/03/21 10:13:05;;;;;;;7.00;6.25;;;;;;;8.34;39.45;99371.05;2412465;82;25745;-81
2021/03/21 10:16:31;;;;;;;8.25;5.83;;;;;;;8.37;39.49;99370.67;2413224;82;25572;-80
2021/03/21 10:19:55;;;;;;;8.63;6.95;;;;;;;8.42;39.51;99372.94;2413488;82;25630;-75
2021/03/21 10:23:16;;;;;;;12.93;7.10;;;;;;;8.44;39.54;99374.28;2384034;82;25676;-78
2021/03/21 10:27:20;;;;;;;7.83;6.42;;;;;;;8.43;39.56;99369.48;2413581;82;25695;-77
2021/03/21 10:31:20;;;;;;;7.65;6.35;;;;;;;8.39;39.60;99367.69;2309980;84;25596;-77
2021/03/21 10:34:42;;;;;;;7.40;6.60;;;;;;;8.36;39.69;99356.35;2336585;83;25813;-77
2021/03/21 10:38:09;;;;;;;8.35;6.50;;;;;;;8.38;39.83;99357.30;2295936;86;25223;-76
2021/03/21 10:42:14;;;;;;;10.10;6.67;;;;;;;8.41;39.97;99357.34;2335399;83;25733;-79
2021/03/21 10:45:44;;;;;;;10.08;6.60;;;;;;;8.44;39.95;99358.27;2350208;84;25546;-76
2021/03/21 10:49:08;;;;;;;7.20;5.92;;;;;;;8.51;40.00;99349.72;2332738;84;25621;-80
2021/03/21 10:52:38;;;;;;;7.35;5.95;;;;;;;8.56;40.10;99333.31;2350122;83;25584;-79
2021/03/21 10:56:22;;;;;;;11.97;6.20;;;;;;;8.61;40.05;99335.57;2333090;84;25756;-79
2021/03/21 11:00:22;;;;;;;8.15;6.33;;;;;;;8.62;39.99;99341.20;2350366;82;25263;-77
2021/03/21 11:03:52;;;;;;;9.30;6.42;;;;;;;8.63;40.08;99344.24;2333048;84;25693;-79
2021/03/21 11:07:20;;;;;;;8.90;6.37;;;;;;;8.68;40.13;99336.11;2429468;78;25756;-78
2021/03/21 11:10:51;;;;;;;6.42;5.45;;;;;;;8.71;40.09;99320.56;2492735;79;25834;-81
2021/03/21 11:14:29;;;;;;;8.33;6.70;;;;;;;8.70;40.13;99313.59;2491904;79;25604;-77
2021/03/21 11:17:51;;;;;;;9.18;6.33;;;;;;;8.70;40.21;99311.00;2492750;79;25567;-77
2021/03/21 11:21:20;;;;;;;8.23;6.30;;;;;;;8.73;40.22;99305.84;2492681;79;25661;-78
2021/03/21 11:24:41;;;;;;;8.85;6.75;;;;;;;8.78;40.22;99309.39;2492516;79;25669;-79
2021/03/21 11:28:04;;;;;;;9.75;6.80;;;;;;;8.80;40.23;99299.87;2492857;79;25581;-77
2021/03/21 11:31:43;;;;;;;9.90;6.55;;;;;;;8.85;40.35;99298.66;2492782;79;26157;-77
2021/03/21 11:35:17;;;;;;;8.13;6.45;;;;;;;8.91;40.32;99296.11;2463347;79;25226;-77
2021/03/21 11:38:42;;;;;;;7.87;6.37;;;;;;;8.96;40.25;99296.62;2490495;79;25615;-78
2021/03/21 11:42:36;;;;;;;7.50;6.42;;;;;;;8.98;40.24;99297.53;2489733;79;25402;-80
2021/03/21 11:46:15;;;;;;;7.80;6.28;;;;;;;9.04;40.28;99299.74;2480810;79;25732;-78
2021/03/21 11:49:38;;;;;;;8.53;6.85;;;;;;;9.08;40.28;99297.63;2478757;78;25562;-75
2021/03/21 11:53:03;;;;;;;8.55;6.90;;;;;;;9.13;40.28;99285.13;2496232;79;25621;-75
2021/03/21 11:56:34;;;;;;;13.05;7.42;;;;;;;9.14;40.28;99286.87;2482088;79;25594;-77
2021/03/21 12:00:00;;;;;;;;;;;;;;;9.19;46.32;99275.24;2459399;80;25674;-76
2021/03/21 12:03:23;;;;;;;9.95;7.00;;;;;;;9.72;46.79;99279.23;2457304;79;25778;-81
2021/03/21 12:06:58;;;;;;;11.28;7.25;;;;;;;9.80;47.34;99274.55;2453933;80;25729;-79
2021/03/21 12:10:36;;;;;;;7.30;6.55;;;;;;;9.82;47.24;99266.75;2457074;79;25821;-81
2021/03/21 12:14:20;;;;;;;10.25;7.40;;;;;;;9.78;47.19;99255.44;2457465;80;25682;-74
2021/03/21 12:18:05;;;;;;;9.15;7.37;;;;;;;10.14;54.75;99250.09;2318216;84;25748;-79
2021/03/21 12:21:37;;;;;;;8.50;6.90;;;;;;;10.76;52.78;99256.13;2295236;85;25986;-79
2021/03/21 12:25:04;;;;;;;9.70;6.95;;;;;;;10.81;51.70;99249.22;2318332;85;25787;-79
2021/03/21 12:28:25;;;;;;;9.65;7.33;;;;;;;10.73;51.48;99247.42;2315272;85;25775;-78
2021/03/21 12:31:46;;;;;;;8.53;6.60;;;;;;;10.63;50.96;99245.20;2318211;85;25647;-76
2021/03/21 12:35:29;;;;;;;11.88;7.10;;;;;;;10.55;53.73;99237.34;2318144;85;26032;-78
2021/03/21 12:38:59;;;;;;;9.18;6.28;;;;;;;10.74;52.54;99243.53;2319161;83;25701;-79
2021/03/21 12:42:57;;;;;;;10.10;7.17;;;;;;;10.73;52.64;99227.47;2550018;77;25616;-80
2021/03/21 12:46:20;;;;;;;6.42;5.35;;;;;;;10.65;52.10;99223.94;2419426;81;25698;-81
2021/03/21 12:50:07;;;;;;;;;;;;;;;;;;;;;
2021/03/21 12:53:33;;;;;;;7.07;6.47;;;;;;;10.83;52.82;99221.43;2368262;82;25807;-77
2021/03/21 12:56:57;;;;;;;8.48;6.55;;;;;;;10.81;52.19;99213.16;2337141;84;25676;-79
2021/03/21 13:00:51;;;;;;;;;;;;;;;;;;;;;
2021/03/21 13:04:39;;;;;;;10.70;6.57;;;;;;;10.58;51.57;99206.53;2603633;76;25595;-80
2021/03/21 13:08:20;;;;;;;11.73;8.05;;;;;;;10.46;51.33;99205.16;2525611;77;25632;-79
2021/03/21 13:12:41;;;;;;;10.28;6.87;;;;;;;10.37;51.16;99219.03;2471320;80;25700;-81
2021/03/21 13:16:40;;;;;;;9.70;6.72;;;;;;;10.27;51.04;99219.40;2374175;82;25350;-80
2021/03/21 13:20:32;;;;;;;8.03;6.50;;;;;;;10.17;50.90;99218.87;2439563;80;25717;-81
2021/03/21 13:35:40;;;;;;;7.80;7.00;;;;;;;10.01;55.77;99200.95;2463616;76;26119;-80
2021/03/21 13:39:10;;;;;;;7.20;6.05;;;;;;;10.39;54.28;99221.19;2388005;79;26082;-80
2021/03/21 13:42:42;;;;;;;8.93;7.22;;;;;;;10.37;53.81;99215.98;2387692;82;25842;-82
2021/03/21 13:46:10;;;;;;;8.13;6.22;;;;;;;10.28;53.43;99213.75;2349625;83;25775;-81
2021/03/21 13:50:17;;;;;;;;;;;;;;;;;;;;;
2021/03/21 13:54:38;;;;;;;7.87;6.87;;;;;;;10.15;53.00;99216.23;2568913;75;26249;-79
2021/03/21 13:58:16;;;;;;;8.83;7.30;;;;;;;10.05;52.83;99211.83;2501627;78;25894;-82
2021/03/21 14:01:44;;;;;;;8.38;6.75;;;;;;;10.01;52.68;99209.20;2486707;78;25768;-81
2021/03/21 14:08:56;;;;;;;8.05;7.17;;;;;;;9.91;52.46;99212.16;2372489;82;26227;-83
2021/03/21 14:12:20;;;;;;;7.37;6.75;;;;;;;9.87;52.37;99204.77;2341000;83;25755;-80
2021/03/21 14:15:47;;;;;;;7.40;6.67;;;;;;;9.82;52.27;99205.58;2343702;83;26153;-80
2021/03/21 14:31:24;;;;;;;7.60;6.87;;;;;;;9.65;51.87;99204.14;2468280;77;25727;-82
2021/03/21 14:34:46;;;;;;;9.48;6.90;;;;;;;9.57;51.78;99198.88;2426755;79;25682;-81
2021/03/21 14:38:12;;;;;;;10.55;7.80;;;;;;;9.54;51.68;99192.78;2443648;80;25996;-81
2021/03/21 14:41:34;;;;;;;8.53;7.10;;;;;;;9.48;51.57;99182.32;2370210;81;25808;-80
2021/03/21 14:44:55;;;;;;;9.98;7.87;;;;;;;9.46;51.50;99182.32;2394585;80;25629;-79
2021/03/21 14:48:23;;;;;;;11.78;8.58;;;;;;;9.42;51.43;99184.02;2416887;80;25665;-80
2021/03/21 14:51:45;;;;;;;11.10;7.95;;;;;;;9.40;51.33;99181.83;2437167;79;25748;-80
2021/03/21 14:55:10;;;;;;;8.50;7.60;;;;;;;9.36;51.29;99181.36;2414402;79;25830;-82
2021/03/21 14:58:32;;;;;;;11.83;8.60;;;;;;;9.34;51.19;99179.16;2428556;80;25808;-80
2021/03/21 15:01:56;;;;;;;8.83;7.92;;;;;;;9.33;51.14;99167.45;2429681;80;25751;-82
2021/03/21 15:05:40;;;;;;;9.67;8.67;;;;;;;9.36;51.07;99172.69;2443511;79;25653;-81
2021/03/21 15:09:09;;;;;;;12.55;7.67;;;;;;;9.28;50.97;99165.23;2380718;83;25666;-80
2021/03/21 15:12:33;;;;;;;11.75;8.20;;;;;;;9.26;50.90;99161.33;2384440;82;25750;-80
2021/03/21 15:15:56;;;;;;;8.85;7.95;;;;;;;9.26;50.79;99166.97;2383837;82;25684;-81
2021/03/21 15:19:22;;;;;;;9.40;8.45;;;;;;;9.23;50.72;99174.30;2384126;82;25736;-81
2021/03/21 15:22:47;;;;;;;8.63;7.67;;;;;;;9.20;50.64;99167.77;2403811;81;25661;-82
2021/03/21 15:26:14;;;;;;;9.80;8.08;;;;;;;9.19;50.59;99177.73;2381974;82;25689;-82
2021/03/21 15:29:36;;;;;;;10.55;8.10;;;;;;;9.17;50.52;99172.94;2381704;83;25813;-82
2021/03/21 15:33:01;;;;;;;9.78;8.83;;;;;;;9.14;50.42;99177.67;2355094;81;26259;-81
2021/03/21 15:36:25;;;;;;;10.10;7.80;;;;;;;9.12;50.37;99179.40;2382086;82;25663;-79
2021/03/21 15:39:48;;;;;;;9.30;8.33;;;;;;;9.11;50.35;99180.67;2382264;83;25652;-79
2021/03/21 15:43:12;;;;;;;15.35;9.20;;;;;;;9.09;50.29;99182.40;2382335;82;25717;-79
2021/03/21 15:46:35;;;;;;;11.00;8.28;;;;;;;9.06;50.26;99178.47;2383966;83;25784;-79
2021/03/21 15:49:58;;;;;;;11.20;8.83;;;;;;;9.05;50.22;99179.33;2383324;82;25909;-78
2021/03/21 15:53:24;;;;;;;9.73;8.70;;;;;;;9.04;50.16;99180.16;2382397;82;25379;-80
2021/03/21 15:56:46;;;;;;;11.40;9.48;;;;;;;9.01;50.11;99174.53;2381665;83;25887;-80
2021/03/21 16:00:11;;;;;;;10.60;8.98;;;;;;;8.97;50.10;99169.70;2382266;83;25862;-80
2021/03/21 16:03:48;;;;;;;10.45;9.25;;;;;;;8.96;50.05;99180.95;2382452;81;25714;-79
2021/03/21 16:07:12;;;;;;;12.68;9.15;;;;;;;8.94;50.02;99178.80;2382219;83;25743;-80
2021/03/21 16:10:36;;;;;;;10.78;8.98;;;;;;;8.93;50.02;99178.33;2381900;83;25444;-80
2021/03/21 16:14:00;;;;;;;12.50;9.68;;;;;;;8.90;49.97;99176.98;2382097;83;25754;-81
2021/03/21 16:17:22;;;;;;;17.27;10.38;;;;;;;8.91;49.96;99182.66;2381442;82;25783;-80
2021/03/21 16:20:47;;;;;;;12.07;9.58;;;;;;;8.89;49.90;99196.48;2353369;83;26045;-81
2021/03/21 16:24:10;;;;;;;11.22;8.75;;;;;;;8.88;49.90;99186.52;2376051;83;26050;-81
2021/03/21 16:31:31;;;;;;;10.60;8.90;;;;;;;8.90;49.86;99189.98;2411162;81;28205;-78
2021/03/21 16:34:56;;;;;;;12.65;9.48;;;;;;;8.85;49.83;99189.08;2332909;84;25371;-78
2021/03/21 16:38:21;;;;;;;12.20;8.65;;;;;;;8.84;49.80;99188.64;2372003;83;26019;-81
2021/03/21 16:41:44;;;;;;;10.98;9.58;;;;;;;8.84;49.80;99192.54;2333284;84;25783;-78
2021/03/21 16:45:11;;;;;;;13.58;9.48;;;;;;;8.83;49.75;99188.17;2355518;83;25815;-85
2021/03/21 16:48:39;;;;;;;10.98;9.45;;;;;;;8.82;49.76;99195.53;2355156;83;25817;-80
2021/03/21 16:52:05;;;;;;;13.30;9.50;;;;;;;8.83;49.72;99196.41;2333313;84;26345;-83
2021/03/21 16:55:30;;;;;;;9.90;8.75;;;;;;;8.80;49.71;99194.63;2354509;81;25783;-80
2021/03/21 16:58:54;;;;;;;10.20;8.98;;;;;;;8.79;49.70;99193.33;2335186;84;25910;-82
2021/03/21 17:02:19;;;;;;;11.95;10.10;;;;;;;8.79;49.71;99202.42;2335254;84;25721;-78
2021/03/21 17:05:42;;;;;;;13.58;9.88;;;;;;;8.77;49.68;99201.09;2335198;84;25633;-79
2021/03/21 17:09:06;;;;;;;15.53;10.25;;;;;;;8.77;49.66;99202.39;2337978;83;25618;-79
2021/03/21 17:12:30;;;;;;;10.70;9.70;;;;;;;8.76;49.64;99211.05;2338677;84;25578;-83
2021/03/21 17:15:53;;;;;;;9.88;8.83;;;;;;;8.74;49.62;99207.14;2187148;90;25759;-79
2021/03/21 17:19:15;;;;;;;12.82;9.48;;;;;;;8.74;49.61;99207.55;2186993;87;25866;-78
2021/03/21 17:22:44;;;;;;;9.90;8.93;;;;;;;8.75;49.63;99219.28;2187209;90;25279;-78
2021/03/21 17:26:08;;;;;;;15.18;9.78;;;;;;;8.74;49.60;99220.14;2186943;87;25779;-81
2021/03/21 17:29:30;;;;;;;9.58;8.65;;;;;;;8.74;49.59;99212.74;2179945;89;26005;-80
2021/03/21 17:32:54;;;;;;;10.45;9.08;;;;;;;8.73;49.57;99222.70;2228613;84;25357;-84